Time;durP1;ratioP1;P1;durP2;ratioP2;P2;SDS_P1;SDS_P2;PMS_P1;PMS_P2;Temp;Humidity;BMP_temperature;BMP_pressure;BME280_temperature;BME280_humidity;BME280_pressure;Samples;Min_cycle;Max_cycle;Signal;HPM_P1;HPM_P2
2023/12/23 00:01:37;;;;;;;14.20;10.50;;;;;;;;;;5050958;28;20093;-56
2023/12/23 00:04:03;;;;;;;15.25;12.55;;;;;;;;;;5050609;28;20025;-55
2023/12/23 00:06:29;;;;;;;15.30;12.70;;;;;;;;;;5050829;28;20044;-54
2023/12/23 00:08:55;;;;;;;15.10;12.80;;;;;;;;;;5041133;28;20025;-57
2023/12/23 00:11:21;;;;;;;14.70;12.13;;;;;;;;;;5050744;28;20037;-56
2023/12/23 00:13:47;;;;;;;14.60;11.80;;;;;;;;;;5051077;28;20064;-56
2023/12/23 00:16:13;;;;;;;23.27;11.85;;;;;;;;;;5051370;28;20579;-59
2023/12/23 00:18:39;;;;;;;14.77;10.65;;;;;;;;;;5050428;28;20029;-56
2023/12/23 00:21:05;;;;;;;13.80;9.10;;;;;;;;;;5051063;28;20039;-57
2023/12/23 00:23:31;;;;;;;15.30;9.10;;;;;;;;;;5050497;28;20013;-52
2023/12/23 00:25:57;;;;;;;15.18;9.48;;;;;;;;;;5051727;28;20021;-53
2023/12/23 00:28:23;;;;;;;13.68;8.80;;;;;;;;;;5052462;28;20032;-51
2023/12/23 00:30:49;;;;;;;13.35;7.97;;;;;;;;;;5044092;28;20061;-54
2023/12/23 00:33:15;;;;;;;13.48;8.30;;;;;;;;;;5041248;28;20042;-54
2023/12/23 00:35:42;;;;;;;13.38;8.30;;;;;;;;;;5046143;28;20402;-55
2023/12/23 00:38:09;;;;;;;15.48;8.40;;;;;;;;;;5051128;28;20017;-53
2023/12/23 00:40:35;;;;;;;13.40;8.10;;;;;;;;;;5050701;28;20561;-53
2023/12/23 00:43:02;;;;;;;13.43;8.27;;;;;;;;;;5050194;28;20025;-56
2023/12/23 00:45:28;;;;;;;13.40;8.15;;;;;;;;;;5050553;28;20172;-55
2023/12/23 00:47:54;;;;;;;13.02;7.75;;;;;;;;;;5029059;28;20152;-55
2023/12/23 00:50:20;;;;;;;13.38;8.05;;;;;;;;;;5047814;28;20036;-57
2023/12/23 00:52:46;;;;;;;13.38;8.07;;;;;;;;;;5045842;28;20045;-53
2023/12/23 00:55:12;;;;;;;13.40;8.10;;;;;;;;;;5044781;28;20064;-56
2023/12/23 00:57:38;;;;;;;13.45;8.43;;;;;;;;;;5073864;23;20013;31
2023/12/23 01:00:05;;;;;;;13.32;7.95;;;;;;;;;;5028937;28;20103;-48
2023/12/23 01:02:30;;;;;;;13.27;7.88;;;;;;;;;;5030158;28;20036;-51
2023/12/23 01:04:56;;;;;;;12.93;7.60;;;;;;;;;;5031913;28;20037;-48
2023/12/23 01:07:22;;;;;;;12.85;7.50;;;;;;;;;;5030555;28;20017;-49
2023/12/23 01:09:48;;;;;;;15.20;7.75;;;;;;;;;;5030844;28;20699;-47
2023/12/23 01:12:14;;;;;;;12.75;7.40;;;;;;;;;;5031525;28;20120;-46
2023/12/23 01:14:40;;;;;;;12.82;7.47;;;;;;;;;;5030558;28;20025;-46
2023/12/23 01:17:06;;;;;;;12.32;7.20;;;;;;;;;;5032671;28;20036;-48
2023/12/23 01:19:32;;;;;;;11.90;7.80;;;;;;;;;;5032579;28;20434;-47
2023/12/23 01:21:58;;;;;;;10.93;6.43;;;;;;;;;;5032534;28;20049;-50
2023/12/23 01:24:24;;;;;;;11.60;6.70;;;;;;;;;;5032909;28;20475;-53
2023/12/23 01:26:50;;;;;;;10.82;6.25;;;;;;;;;;5032720;28;20052;-47
2023/12/23 01:29:16;;;;;;;11.05;6.43;;;;;;;;;;5031205;28;20105;-46
2023/12/23 01:31:42;;;;;;;10.45;6.15;;;;;;;;;;5032661;28;20018;-46
2023/12/23 01:34:08;;;;;;;10.88;6.22;;;;;;;;;;5032460;28;20459;-48
2023/12/23 01:36:34;;;;;;;11.00;6.30;;;;;;;;;;5032318;28;20113;-48
2023/12/23 01:39:00;;;;;;;9.57;5.65;;;;;;;;;;5032256;28;20109;-48
2023/12/23 01:41:26;;;;;;;9.93;5.78;;;;;;;;;;5032054;28;20033;-52
2023/12/23 01:43:52;;;;;;;8.90;5.30;;;;;;;;;;5032257;28;20498;-48
2023/12/23 01:46:19;;;;;;;10.18;5.95;;;;;;;;;;5032463;28;20021;-46
2023/12/23 01:48:45;;;;;;;9.50;5.60;;;;;;;;;;5031916;28;20029;-50
2023/12/23 01:51:12;;;;;;;9.38;5.57;;;;;;;;;;5031969;28;20474;-54
2023/12/23 01:53:38;;;;;;;9.45;5.57;;;;;;;;;;5050682;28;20086;-46
2023/12/23 01:56:04;;;;;;;9.80;5.70;;;;;;;;;;5051884;28;20025;-46
2023/12/23 01:58:30;;;;;;;9.88;5.80;;;;;;;;;;5051541;28;20037;-47
2023/12/23 02:00:56;;;;;;;10.10;5.93;;;;;;;;;;5050481;28;20032;-50
2023/12/23 02:03:23;;;;;;;9.73;5.68;;;;;;;;;;5051665;28;20025;-50
2023/12/23 02:05:49;;;;;;;12.10;6.10;;;;;;;;;;5050348;28;20208;-46
2023/12/23 02:08:15;;;;;;;9.70;5.70;;;;;;;;;;5050238;28;20039;-51
2023/12/23 02:10:41;;;;;;;9.20;5.40;;;;;;;;;;5051427;28;20523;-49
2023/12/23 02:13:10;;;;;;;16.98;6.22;;;;;;;;;;5050717;28;20479;-48
2023/12/23 02:15:37;;;;;;;9.52;5.63;;;;;;;;;;5050350;28;20048;-50
2023/12/23 02:18:03;;;;;;;9.50;5.63;;;;;;;;;;5051501;28;20103;-47
2023/12/23 02:20:29;;;;;;;9.95;5.82;;;;;;;;;;5051117;28;20029;-45
2023/12/23 02:22:56;;;;;;;10.10;6.00;;;;;;;;;;5051319;28;20039;-48
2023/12/23 02:25:22;;;;;;;9.60;5.70;;;;;;;;;;5051354;28;20025;-47
2023/12/23 02:27:51;;;;;;;10.57;6.55;;;;;;;;;;5051193;28;20017;-49
2023/12/23 02:30:17;;;;;;;18.50;6.03;;;;;;;;;;5051033;28;20092;-51
2023/12/23 02:32:44;;;;;;;9.60;5.68;;;;;;;;;;5051174;28;20036;-47
2023/12/23 02:35:10;;;;;;;28.52;6.30;;;;;;;;;;5050978;28;20021;-48
2023/12/23 02:37:36;;;;;;;9.10;5.35;;;;;;;;;;5051256;28;20074;-50
2023/12/23 02:40:01;;;;;;;11.25;6.47;;;;;;;;;;5051234;28;20106;-45
2023/12/23 02:42:27;;;;;;;10.85;7.25;;;;;;;;;;5050791;28;20021;-50
2023/12/23 02:44:53;;;;;;;10.23;5.95;;;;;;;;;;5051136;28;20044;-49
2023/12/23 02:47:19;;;;;;;11.70;5.90;;;;;;;;;;5050837;28;20033;-52
2023/12/23 02:49:45;;;;;;;9.32;5.50;;;;;;;;;;5050691;28;20504;-49
2023/12/23 02:52:11;;;;;;;9.75;5.75;;;;;;;;;;5050333;28;20021;-50
2023/12/23 02:54:37;;;;;;;10.95;6.32;;;;;;;;;;5049329;28;20394;-48
2023/12/23 02:57:04;;;;;;;9.80;5.72;;;;;;;;;;5050575;28;20047;-46
2023/12/23 02:59:30;;;;;;;9.80;5.72;;;;;;;;;;5050210;28;20029;-52
2023/12/23 03:01:56;;;;;;;9.98;5.88;;;;;;;;;;5050249;28;20055;-49
2023/12/23 03:04:22;;;;;;;9.13;5.40;;;;;;;;;;5050088;28;20024;-48
2023/12/23 03:06:48;;;;;;;9.23;5.50;;;;;;;;;;5049260;28;20021;-51
2023/12/23 03:09:14;;;;;;;13.05;7.53;;;;;;;;;;5050307;28;20055;-49
2023/12/23 03:11:40;;;;;;;9.57;5.60;;;;;;;;;;5050290;28;20028;-50
2023/12/23 03:14:06;;;;;;;10.10;5.90;;;;;;;;;;5050374;28;20029;-52
2023/12/23 03:16:35;;;;;;;10.00;5.90;;;;;;;;;;5050212;28;20033;-51
2023/12/23 03:19:02;;;;;;;25.58;6.38;;;;;;;;;;5050261;28;20033;-48
2023/12/23 03:21:28;;;;;;;9.60;5.70;;;;;;;;;;5049819;28;20029;-48
2023/12/23 03:23:54;;;;;;;9.88;5.55;;;;;;;;;;5049957;28;20024;-50
2023/12/23 03:26:20;;;;;;;9.63;5.68;;;;;;;;;;5049931;28;20017;-49
2023/12/23 03:28:46;;;;;;;8.93;5.30;;;;;;;;;;5048863;28;20040;-49
2023/12/23 03:31:12;;;;;;;9.98;5.88;;;;;;;;;;5049770;28;20636;-50
2023/12/23 03:33:39;;;;;;;10.50;5.93;;;;;;;;;;5050172;28;20058;-45
2023/12/23 03:36:06;;;;;;;9.70;5.70;;;;;;;;;;5049924;28;20438;-51
2023/12/23 03:38:32;;;;;;;10.80;6.18;;;;;;;;;;5049641;28;20021;-48
2023/12/23 03:40:58;;;;;;;8.88;5.25;;;;;;;;;;5048327;28;20028;-47
2023/12/23 03:43:24;;;;;;;8.45;5.00;;;;;;;;;;5049920;28;20437;-51
2023/12/23 03:45:50;;;;;;;8.07;4.80;;;;;;;;;;5050027;28;20054;-47
2023/12/23 03:48:15;;;;;;;8.02;4.80;;;;;;;;;;5049788;28;20654;-49
2023/12/23 03:50:41;;;;;;;8.48;5.00;;;;;;;;;;5049823;28;20021;-51
2023/12/23 03:53:08;;;;;;;8.15;4.82;;;;;;;;;;5049977;28;20557;-50
2023/12/23 03:55:34;;;;;;;8.63;5.10;;;;;;;;;;5049777;28;20036;-50
2023/12/23 03:58:00;;;;;;;9.20;5.45;;;;;;;;;;5049525;28;20111;-52
2023/12/23 04:00:27;;;;;;;11.00;6.43;;;;;;;;;;5049559;28;20104;-49
2023/12/23 04:02:53;;;;;;;11.50;6.78;;;;;;;;;;5049385;28;20040;-46
2023/12/23 04:05:19;;;;;;;11.80;6.90;;;;;;;;;;5049375;28;20033;-51
2023/12/23 04:07:49;;;;;;;12.13;7.15;;;;;;;;;;5049709;28;20036;-49
2023/12/23 04:10:15;;;;;;;13.57;8.80;;;;;;;;;;5032783;28;20029;-47
2023/12/23 04:12:41;;;;;;;14.50;10.32;;;;;;;;;;5029750;28;20517;-48
2023/12/23 04:15:07;;;;;;;13.70;9.20;;;;;;;;;;5029822;28;20025;-50
2023/12/23 04:17:33;;;;;;;13.73;9.20;;;;;;;;;;5029389;28;20018;-45
2023/12/23 04:19:59;;;;;;;13.68;9.05;;;;;;;;;;5029443;28;20029;-51
2023/12/23 04:22:25;;;;;;;13.73;9.27;;;;;;;;;;5045397;28;20029;-51
2023/12/23 04:24:51;;;;;;;13.55;8.70;;;;;;;;;;5029330;28;20130;-46
2023/12/23 04:27:17;;;;;;;13.23;7.97;;;;;;;;;;5030130;28;20018;-46
2023/12/23 04:29:43;;;;;;;13.27;8.50;;;;;;;;;;5044654;28;20026;-51
2023/12/23 04:32:10;;;;;;;13.73;9.23;;;;;;;;;;5045185;28;20033;-49
2023/12/23 04:34:37;;;;;;;15.18;13.50;;;;;;;;;;5049432;28;20021;-51
2023/12/23 04:37:03;;;;;;;19.20;17.40;;;;;;;;;;5053047;28;20099;-48
2023/12/23 04:39:29;;;;;;;24.30;22.30;;;;;;;;;;5052876;28;20531;-51
2023/12/23 04:41:55;;;;;;;25.40;23.30;;;;;;;;;;5052430;28;20115;-53
2023/12/23 04:44:22;;;;;;;23.35;21.35;;;;;;;;;;5035171;28;20034;-51
2023/12/23 04:46:48;;;;;;;21.75;19.85;;;;;;;;;;5032935;28;20024;-51
2023/12/23 04:49:15;;;;;;;45.78;21.33;;;;;;;;;;5031505;28;20053;-46
2023/12/23 04:51:44;;;;;;;20.60;18.70;;;;;;;;;;5032729;28;20025;-51
2023/12/23 04:54:13;;;;;;;20.55;18.65;;;;;;;;;;5033302;28;20518;-47
2023/12/23 04:56:39;;;;;;;22.17;20.17;;;;;;;;;;5033299;28;20079;-54
2023/12/23 04:59:06;;;;;;;22.35;20.45;;;;;;;;;;5033268;28;20116;-49
2023/12/23 05:01:32;;;;;;;22.70;20.70;;;;;;;;;;5032831;28;20053;-49
2023/12/23 05:03:58;;;;;;;22.80;20.80;;;;;;;;;;5032821;28;20061;-48
2023/12/23 05:06:24;;;;;;;22.27;20.33;;;;;;;;;;5032735;28;20030;-50
2023/12/23 05:08:50;;;;;;;21.50;19.60;;;;;;;;;;5032680;28;20093;-48
2023/12/23 05:11:16;;;;;;;21.60;19.70;;;;;;;;;;5032317;28;20117;-51
2023/12/23 05:13:42;;;;;;;21.25;19.35;;;;;;;;;;5032744;28;20025;-55
2023/12/23 05:16:08;;;;;;;21.60;19.70;;;;;;;;;;5031129;28;20053;-52
2023/12/23 05:18:34;;;;;;;21.38;19.48;;;;;;;;;;5043820;28;20063;-47
2023/12/23 05:21:00;;;;;;;22.23;20.23;;;;;;;;;;5037242;28;20499;-55
2023/12/23 05:23:26;;;;;;;21.48;19.58;;;;;;;;;;5048903;28;20025;-45
2023/12/23 05:25:55;;;;;;;21.40;19.40;;;;;;;;;;5032394;28;20080;-51
2023/12/23 05:28:22;;;;;;;21.25;19.35;;;;;;;;;;5032281;28;20415;-49
2023/12/23 05:30:48;;;;;;;19.13;17.15;;;;;;;;;;5040772;28;20017;-52
2023/12/23 05:33:14;;;;;;;17.45;15.65;;;;;;;;;;5048602;28;20127;-48
2023/12/23 05:35:40;;;;;;;18.48;16.67;;;;;;;;;;5030974;28;20117;-50
2023/12/23 05:38:06;;;;;;;20.90;19.00;;;;;;;;;;5032219;28;20573;-49
2023/12/23 05:40:32;;;;;;;20.35;18.45;;;;;;;;;;5032050;28;20017;-48
2023/12/23 05:42:58;;;;;;;19.40;17.50;;;;;;;;;;5032261;28;20622;-49
2023/12/23 05:45:23;;;;;;;19.58;17.63;;;;;;;;;;5049837;28;20033;-48
2023/12/23 05:47:50;;;;;;;19.20;17.40;;;;;;;;;;5050573;28;20120;-50
2023/12/23 05:50:16;;;;;;;21.50;19.45;;;;;;;;;;5051793;28;20017;-48
2023/12/23 05:52:44;;;;;;;19.33;17.52;;;;;;;;;;5051606;28;20491;-52
2023/12/23 05:55:10;;;;;;;20.98;18.95;;;;;;;;;;5051655;28;20025;-50
2023/12/23 05:57:36;;;;;;;21.23;19.23;;;;;;;;;;5051467;28;20402;-52
2023/12/23 06:00:05;;;;;;;20.70;18.80;;;;;;;;;;5051653;28;20029;-50
2023/12/23 06:02:31;;;;;;;19.02;17.15;;;;;;;;;;5050096;28;20029;-51
2023/12/23 06:04:57;;;;;;;16.85;15.15;;;;;;;;;;5051553;28;20021;-50
2023/12/23 06:07:23;;;;;;;15.30;13.40;;;;;;;;;;5051696;28;20056;-53
2023/12/23 06:09:49;;;;;;;16.02;14.32;;;;;;;;;;5051712;28;20461;-53
2023/12/23 06:12:15;;;;;;;17.80;16.00;;;;;;;;;;5051446;28;20029;-50
2023/12/23 06:14:41;;;;;;;17.05;15.35;;;;;;;;;;5051612;28;20470;-50
2023/12/23 06:17:08;;;;;;;18.10;16.30;;;;;;;;;;5051519;28;20025;-52
2023/12/23 06:19:34;;;;;;;18.70;16.90;;;;;;;;;;5051495;28;20020;-47
2023/12/23 06:22:00;;;;;;;18.58;16.70;;;;;;;;;;5051082;28;20591;-47
2023/12/23 06:24:26;;;;;;;17.50;15.70;;;;;;;;;;5051163;28;20021;-49
2023/12/23 06:26:52;;;;;;;18.33;15.43;;;;;;;;;;5051275;28;20074;-47
2023/12/23 06:29:18;;;;;;;19.58;15.57;;;;;;;;;;5033578;28;20029;-49
2023/12/23 06:31:44;;;;;;;16.70;14.35;;;;;;;;;;5030951;28;20044;-52
2023/12/23 06:34:10;;;;;;;16.45;14.43;;;;;;;;;;5031065;28;20033;-49
2023/12/23 06:36:36;;;;;;;17.40;15.60;;;;;;;;;;5033270;28;20413;-51
2023/12/23 06:39:03;;;;;;;16.80;14.93;;;;;;;;;;5044089;28;20107;-49
2023/12/23 06:41:30;;;;;;;17.38;15.45;;;;;;;;;;5030855;28;20044;-49
2023/12/23 06:43:56;;;;;;;18.60;16.80;;;;;;;;;;5031061;28;20064;-52
2023/12/23 06:46:22;;;;;;;18.58;15.75;;;;;;;;;;5031047;28;20030;-50
2023/12/23 06:48:48;;;;;;;17.17;14.57;;;;;;;;;;5030745;28;20028;-48
2023/12/23 06:51:14;;;;;;;15.52;13.82;;;;;;;;;;5030318;28;20101;-48
2023/12/23 06:53:40;;;;;;;15.20;13.52;;;;;;;;;;5030727;28;20013;-47
2023/12/23 06:56:06;;;;;;;15.73;13.32;;;;;;;;;;5030622;28;20102;-50
2023/12/23 06:58:32;;;;;;;22.52;15.02;;;;;;;;;;5054381;23;21679;-50
2023/12/23 07:00:58;;;;;;;16.42;14.63;;;;;;;;;;5051486;28;20067;-53
2023/12/23 07:03:24;;;;;;;16.95;14.30;;;;;;;;;;5042471;28;20616;-53
2023/12/23 07:05:50;;;;;;;14.90;12.48;;;;;;;;;;5029125;28;20040;-52
2023/12/23 07:08:16;;;;;;;15.60;13.90;;;;;;;;;;5030401;28;20360;-50
2023/12/23 07:10:42;;;;;;;18.65;15.40;;;;;;;;;;5028804;28;20132;-52
2023/12/23 07:13:08;;;;;;;16.58;13.90;;;;;;;;;;5028870;28;20041;-53
2023/12/23 07:15:34;;;;;;;19.35;14.45;;;;;;;;;;5028675;28;20017;-53
2023/12/23 07:18:00;;;;;;;19.13;14.60;;;;;;;;;;5011094;28;20040;-55
2023/12/23 07:20:27;;;;;;;15.20;13.07;;;;;;;;;;5027164;28;20028;-54
2023/12/23 07:22:53;;;;;;;15.40;12.35;;;;;;;;;;5007703;28;20129;-56
2023/12/23 07:25:19;;;;;;;15.00;11.90;;;;;;;;;;5026518;28;20045;-56
2023/12/23 07:27:46;;;;;;;15.88;11.63;;;;;;;;;;5028848;28;20022;-55
2023/12/23 07:30:14;;;;;;;15.23;13.23;;;;;;;;;;5007369;28;20048;-54
2023/12/23 07:32:40;;;;;;;15.30;13.30;;;;;;;;;;5020455;28;20027;-56
2023/12/23 07:35:06;;;;;;;16.00;14.30;;;;;;;;;;5031433;28;20028;-56
2023/12/23 07:37:32;;;;;;;15.30;13.45;;;;;;;;;;5036830;28;20036;-55
2023/12/23 07:39:58;;;;;;;17.05;14.23;;;;;;;;;;5007552;28;20026;-54
2023/12/23 07:42:24;;;;;;;16.00;14.30;;;;;;;;;;5026280;28;20029;-56
2023/12/23 07:44:50;;;;;;;17.25;14.93;;;;;;;;;;5015738;28;20077;-53
2023/12/23 07:47:17;;;;;;;15.50;13.80;;;;;;;;;;5005374;28;20376;-55
2023/12/23 07:49:43;;;;;;;15.10;12.27;;;;;;;;;;5007356;28;20643;-53
2023/12/23 07:52:09;;;;;;;14.30;11.20;;;;;;;;;;5024208;28;20037;-54
2023/12/23 07:54:35;;;;;;;15.90;13.40;;;;;;;;;;5010356;28;20025;-55
2023/12/23 07:57:01;;;;;;;15.52;12.80;;;;;;;;;;5028554;28;20097;-53
2023/12/23 07:59:27;;;;;;;14.48;11.40;;;;;;;;;;5028056;28;20183;-52
2023/12/23 08:01:53;;;;;;;16.35;12.50;;;;;;;;;;5014958;28;20088;-52
2023/12/23 08:04:19;;;;;;;18.02;12.80;;;;;;;;;;5025696;28;20092;-55
2023/12/23 08:06:45;;;;;;;15.05;12.30;;;;;;;;;;5007313;28;20414;-56
2023/12/23 08:09:11;;;;;;;15.30;13.27;;;;;;;;;;5003674;28;20088;-53
2023/12/23 08:11:37;;;;;;;16.95;12.82;;;;;;;;;;5031580;28;20463;-53
2023/12/23 08:14:04;;;;;;;16.70;14.43;;;;;;;;;;5032127;28;20104;-53
2023/12/23 08:16:30;;;;;;;15.13;13.20;;;;;;;;;;5032252;28;20025;-54
2023/12/23 08:18:56;;;;;;;15.35;13.65;;;;;;;;;;5031924;28;20026;-58
2023/12/23 08:21:22;;;;;;;17.52;14.75;;;;;;;;;;5031871;28;20057;-54
2023/12/23 08:23:48;;;;;;;15.93;14.10;;;;;;;;;;5032086;28;20444;-55
2023/12/23 08:26:14;;;;;;;14.95;12.82;;;;;;;;;;5031864;28;20024;-54
2023/12/23 08:28:40;;;;;;;14.50;11.65;;;;;;;;;;5031770;28;20021;-53
2023/12/23 08:31:06;;;;;;;15.20;13.20;;;;;;;;;;5031878;28;20060;-51
2023/12/23 08:33:36;;;;;;;17.17;12.70;;;;;;;;;;5016293;28;20161;-51
2023/12/23 08:36:02;;;;;;;15.25;12.63;;;;;;;;;;5022856;28;20117;-64
2023/12/23 08:38:28;;;;;;;16.15;11.57;;;;;;;;;;5011574;28;20117;-47
2023/12/23 08:40:54;;;;;;;16.10;12.10;;;;;;;;;;5031817;28;20028;-52
2023/12/23 08:43:19;;;;;;;14.70;11.77;;;;;;;;;;5031912;28;20025;-48
2023/12/23 08:45:45;;;;;;;14.45;11.43;;;;;;;;;;5032025;28;20025;-46
2023/12/23 08:48:11;;;;;;;14.75;12.40;;;;;;;;;;5035221;28;20565;-51
2023/12/23 08:50:38;;;;;;;14.80;12.27;;;;;;;;;;5031818;28;20040;-49
2023/12/23 08:53:04;;;;;;;15.05;13.30;;;;;;;;;;5009938;28;20022;-47
2023/12/23 08:55:30;;;;;;;14.38;11.18;;;;;;;;;;5031727;28;20037;-48
2023/12/23 08:57:56;;;;;;;15.10;13.20;;;;;;;;;;5031498;28;20036;-48
2023/12/23 09:00:22;;;;;;;14.38;11.18;;;;;;;;;;5011568;28;20041;-50
2023/12/23 09:02:48;;;;;;;14.60;11.93;;;;;;;;;;5017323;28;20137;-50
2023/12/23 09:05:14;;;;;;;14.45;11.30;;;;;;;;;;5028144;28;20524;-51
2023/12/23 09:07:40;;;;;;;14.65;12.10;;;;;;;;;;5031347;28;20077;-48
2023/12/23 09:10:07;;;;;;;14.68;12.07;;;;;;;;;;5031270;28;20030;-50
2023/12/23 09:12:35;;;;;;;14.93;12.88;;;;;;;;;;5012448;28;20043;-50
2023/12/23 09:15:01;;;;;;;;;;;;;;;;;;5010770;28;20079;-52
2023/12/23 09:17:27;;;;;;;14.75;12.20;;;;;;;;;;5029772;28;19909;-54
2023/12/23 09:19:53;;;;;;;14.60;11.70;;;;;;;;;;5009896;28;20553;-52
2023/12/23 09:22:19;;;;;;;15.38;13.68;;;;;;;;;;5020123;28;20057;-56
2023/12/23 09:24:45;;;;;;;15.20;13.60;;;;;;;;;;5042380;28;20071;-52
2023/12/23 09:27:11;;;;;;;15.10;13.25;;;;;;;;;;5030978;28;20087;-51
2023/12/23 09:29:37;;;;;;;15.30;13.70;;;;;;;;;;5027360;28;20128;-55
2023/12/23 09:32:03;;;;;;;15.40;13.73;;;;;;;;;;5012608;28;20574;-50
2023/12/23 09:34:29;;;;;;;15.35;13.73;;;;;;;;;;5011732;28;20116;-52
2023/12/23 09:36:55;;;;;;;14.77;12.30;;;;;;;;;;5030694;28;20129;-52
2023/12/23 09:39:21;;;;;;;14.73;12.15;;;;;;;;;;5030736;28;20029;-53
2023/12/23 09:41:48;;;;;;;15.90;14.20;;;;;;;;;;5030547;28;20140;-52
2023/12/23 09:44:14;;;;;;;16.20;14.50;;;;;;;;;;5030607;28;20041;-54
2023/12/23 09:46:40;;;;;;;16.17;14.48;;;;;;;;;;5024168;28;20555;-55
2023/12/23 09:49:06;;;;;;;15.10;13.15;;;;;;;;;;5030503;28;20151;-54
2023/12/23 09:51:32;;;;;;;15.50;13.80;;;;;;;;;;5030189;28;20038;-53
2023/12/23 09:54:02;;;;;;;15.55;13.85;;;;;;;;;;5036398;28;20080;-51
2023/12/23 09:56:28;;;;;;;15.10;13.40;;;;;;;;;;5050791;28;20033;-49
2023/12/23 09:58:54;;;;;;;16.73;15.02;;;;;;;;;;5050450;28;20039;-51
2023/12/23 10:01:20;;;;;;;16.77;15.07;;;;;;;;;;5050332;28;20059;-53
2023/12/23 10:03:47;;;;;;;15.57;13.88;;;;;;;;;;5010884;28;20051;-55
2023/12/23 10:06:16;;;;;;;14.90;12.70;;;;;;;;;;5010759;28;20484;-54
2023/12/23 10:08:46;;;;;;;14.80;12.55;;;;;;;;;;5010155;28;20101;-55
2023/12/23 10:11:12;;;;;;;14.70;12.30;;;;;;;;;;5010336;28;20255;-52
2023/12/23 10:13:39;;;;;;;14.70;12.23;;;;;;;;;;5010529;28;20398;-55
2023/12/23 10:16:06;;;;;;;14.80;12.48;;;;;;;;;;5010489;28;20025;-53
2023/12/23 10:18:32;;;;;;;14.57;11.68;;;;;;;;;;4992391;28;20030;-53
2023/12/23 10:20:58;;;;;;;15.00;13.02;;;;;;;;;;5010091;28;20024;-51
2023/12/23 10:23:24;;;;;;;15.07;13.10;;;;;;;;;;5016814;28;20057;-50
2023/12/23 10:25:53;;;;;;;14.90;12.70;;;;;;;;;;5025019;28;20053;-51
2023/12/23 10:28:19;;;;;;;15.40;13.80;;;;;;;;;;5029336;28;20049;-53
2023/12/23 10:30:48;;;;;;;15.70;14.00;;;;;;;;;;5029307;28;20641;-53
2023/12/23 10:33:16;;;;;;;15.20;13.45;;;;;;;;;;5028552;28;20029;-54
2023/12/23 10:35:45;;;;;;;15.80;14.10;;;;;;;;;;5036179;28;20029;-52
2023/12/23 10:38:14;;;;;;;15.13;13.50;;;;;;;;;;5027991;28;20029;-49
2023/12/23 10:40:41;;;;;;;15.63;13.95;;;;;;;;;;5029176;28;20064;-54
2023/12/23 10:43:08;;;;;;;16.35;14.65;;;;;;;;;;5037290;28;20017;-54
2023/12/23 10:45:35;;;;;;;16.00;14.30;;;;;;;;;;5029241;28;20019;-50
2023/12/23 10:48:01;;;;;;;15.20;13.57;;;;;;;;;;5035137;28;20386;-48
2023/12/23 10:50:27;;;;;;;15.73;14.02;;;;;;;;;;5049321;28;20021;-53
2023/12/23 10:52:53;;;;;;;15.52;13.85;;;;;;;;;;5031182;28;20103;-50
2023/12/23 10:55:20;;;;;;;18.55;16.75;;;;;;;;;;5049361;28;20108;-50
2023/12/23 10:57:47;;;;;;;17.25;15.55;;;;;;;;;;5019814;28;20040;-54
2023/12/23 11:00:14;;;;;;;17.20;15.50;;;;;;;;;;5026252;28;20029;-54
2023/12/23 11:02:41;;;;;;;16.40;14.70;;;;;;;;;;5033974;28;20482;-56
2023/12/23 11:05:08;;;;;;;16.35;14.65;;;;;;;;;;5049412;28;20013;-53
2023/12/23 11:07:42;;;;;;;17.23;15.52;;;;;;;;;;5031430;28;20079;-53
2023/12/23 11:10:08;;;;;;;17.33;15.63;;;;;;;;;;5049431;28;20021;-54
2023/12/23 11:12:35;;;;;;;17.80;16.10;;;;;;;;;;5049274;28;20065;-55
2023/12/23 11:15:01;;;;;;;17.77;16.08;;;;;;;;;;5049153;28;20055;-54
2023/12/23 11:17:28;;;;;;;18.10;16.30;;;;;;;;;;5031306;28;20124;-56
2023/12/23 11:20:01;;;;;;;18.77;16.98;;;;;;;;;;5049348;28;20076;-50
2023/12/23 11:22:37;;;;;;;17.70;16.00;;;;;;;;;;5048379;28;20029;-51
2023/12/23 11:25:03;;;;;;;18.58;16.77;;;;;;;;;;5048880;28;20028;-56
2023/12/23 11:27:32;;;;;;;17.13;15.43;;;;;;;;;;5030614;28;20394;-52
2023/12/23 11:30:03;;;;;;;17.33;15.63;;;;;;;;;;5048786;28;20462;-51
2023/12/23 11:32:37;;;;;;;19.67;17.88;;;;;;;;;;5048520;28;20108;-55
2023/12/23 11:35:03;;;;;;;17.58;15.88;;;;;;;;;;5048347;28;20032;-55
2023/12/23 11:37:50;;;;;;;16.75;15.05;;;;;;;;;;5048494;28;20087;-55
2023/12/23 11:40:17;;;;;;;17.10;15.40;;;;;;;;;;5048689;28;20490;-54
2023/12/23 11:42:43;;;;;;;18.33;16.52;;;;;;;;;;5048145;28;20040;-52
2023/12/23 11:45:11;;;;;;;18.98;17.17;;;;;;;;;;5030568;28;20071;-53
2023/12/23 11:47:37;;;;;;;17.33;15.63;;;;;;;;;;5048413;28;20154;-56
2023/12/23 11:50:03;;;;;;;17.05;15.35;;;;;;;;;;5048372;28;20086;-57
2023/12/23 11:52:30;;;;;;;17.25;15.55;;;;;;;;;;5048052;28;20032;-51
2023/12/23 11:54:56;;;;;;;17.17;15.48;;;;;;;;;;5048438;28;20131;-55
2023/12/23 11:57:22;;;;;;;17.30;15.60;;;;;;;;;;5048625;28;20147;-56
2023/12/23 11:59:48;;;;;;;16.30;14.60;;;;;;;;;;5030353;28;20045;-55
2023/12/23 12:02:14;;;;;;;16.67;14.98;;;;;;;;;;5041186;28;20169;-52
2023/12/23 12:04:41;;;;;;;16.52;14.82;;;;;;;;;;5028459;28;20402;-56
2023/12/23 12:07:07;;;;;;;16.75;15.05;;;;;;;;;;5028292;28;20025;-56
2023/12/23 12:09:33;;;;;;;16.60;14.90;;;;;;;;;;5028165;28;20105;-55
2023/12/23 12:12:00;;;;;;;17.02;15.32;;;;;;;;;;5028287;28;20099;-52
2023/12/23 12:14:28;;;;;;;17.33;15.63;;;;;;;;;;5028584;28;20025;-53
2023/12/23 12:16:54;;;;;;;17.73;16.02;;;;;;;;;;5028355;28;20024;-57
2023/12/23 12:19:21;;;;;;;17.27;15.57;;;;;;;;;;5028533;28;20113;-57
2023/12/23 12:21:47;;;;;;;16.10;14.40;;;;;;;;;;5028192;28;20022;-56
2023/12/23 12:24:13;;;;;;;17.73;16.02;;;;;;;;;;5028316;28;20048;-53
2023/12/23 12:26:39;;;;;;;17.85;16.15;;;;;;;;;;5028538;28;20032;-51
2023/12/23 12:29:05;;;;;;;16.88;15.18;;;;;;;;;;5028002;28;20057;-56
2023/12/23 12:31:31;;;;;;;14.90;12.77;;;;;;;;;;5028067;28;20064;-49
2023/12/23 12:33:58;;;;;;;14.90;12.70;;;;;;;;;;5028168;28;20077;-54
2023/12/23 12:36:24;;;;;;;14.60;11.88;;;;;;;;;;5028352;28;20109;-57
2023/12/23 12:38:50;;;;;;;15.10;13.25;;;;;;;;;;5028498;28;20030;-54
2023/12/23 12:41:16;;;;;;;15.98;14.27;;;;;;;;;;5010360;28;20462;-56
2023/12/23 12:43:43;;;;;;;15.32;13.63;;;;;;;;;;5028678;28;20283;-54
2023/12/23 12:46:09;;;;;;;15.68;13.98;;;;;;;;;;5028522;28;20029;-54
2023/12/23 12:48:36;;;;;;;15.55;13.85;;;;;;;;;;5028127;28;20040;-54
2023/12/23 12:51:02;;;;;;;15.98;14.27;;;;;;;;;;5027816;28;20094;-55
2023/12/23 12:53:29;;;;;;;15.50;13.80;;;;;;;;;;5028029;28;20029;-53
2023/12/23 12:55:55;;;;;;;15.20;13.55;;;;;;;;;;5028893;28;20027;-56
2023/12/23 13:01:00;;;;;;;15.70;14.00;;;;;;;;;;5049478;28;20419;-55
2023/12/23 13:03:26;;;;;;;15.73;14.02;;;;;;;;;;5052387;28;20040;-57
2023/12/23 13:05:52;;;;;;;16.52;14.82;;;;;;;;;;5052899;28;20028;-54
2023/12/23 13:08:18;;;;;;;16.83;15.13;;;;;;;;;;5053260;28;20029;-57
2023/12/23 13:10:44;;;;;;;16.85;15.15;;;;;;;;;;5033146;28;20145;-57
2023/12/23 13:13:10;;;;;;;17.63;15.93;;;;;;;;;;5032504;28;20025;-56
2023/12/23 13:15:36;;;;;;;18.42;16.63;;;;;;;;;;5019771;28;20103;-55
2023/12/23 13:18:02;;;;;;;18.80;17.00;;;;;;;;;;5038945;28;20115;-52
2023/12/23 13:20:28;;;;;;;19.00;17.20;;;;;;;;;;5043931;28;20036;-54
2023/12/23 13:22:54;;;;;;;19.60;17.80;;;;;;;;;;5051362;28;20025;-52
2023/12/23 13:25:20;;;;;;;19.75;17.95;;;;;;;;;;5034537;28;20395;-51
2023/12/23 13:27:46;;;;;;;19.70;17.90;;;;;;;;;;5034544;28;20021;-51
2023/12/23 13:30:12;;;;;;;19.90;18.10;;;;;;;;;;5052409;28;20025;-52
2023/12/23 13:32:38;;;;;;;18.90;17.10;;;;;;;;;;5051781;28;20033;-53
2023/12/23 13:35:04;;;;;;;18.50;16.70;;;;;;;;;;5052128;28;20478;-53
2023/12/23 13:37:31;;;;;;;19.35;17.55;;;;;;;;;;5052259;28;20079;-49
2023/12/23 13:39:57;;;;;;;18.55;16.75;;;;;;;;;;5052111;28;20064;-47
2023/12/23 13:42:23;;;;;;;18.45;16.65;;;;;;;;;;5034040;28;20025;-50
2023/12/23 13:44:49;;;;;;;19.00;17.20;;;;;;;;;;5051820;28;20017;-51
2023/12/23 13:47:15;;;;;;;19.05;17.25;;;;;;;;;;5034121;28;20505;-53
2023/12/23 13:49:41;;;;;;;20.58;18.77;;;;;;;;;;5051619;28;20029;-52
2023/12/23 13:52:07;;;;;;;20.48;18.67;;;;;;;;;;5033695;28;20025;-51
2023/12/23 13:54:33;;;;;;;19.85;18.05;;;;;;;;;;5051415;28;20021;-52
2023/12/23 13:56:59;;;;;;;20.13;18.33;;;;;;;;;;5033619;28;20127;-51
2023/12/23 13:59:25;;;;;;;20.60;18.80;;;;;;;;;;5051625;28;20037;-52
2023/12/23 14:01:51;;;;;;;20.40;18.60;;;;;;;;;;5043252;28;20044;-49
2023/12/23 14:04:17;;;;;;;20.77;18.90;;;;;;;;;;4994356;28;20391;-47
2023/12/23 14:06:43;;;;;;;21.33;19.42;;;;;;;;;;5011642;28;20026;-50
2023/12/23 14:09:09;;;;;;;20.45;18.65;;;;;;;;;;5010873;28;20041;-54
2023/12/23 14:11:35;;;;;;;20.65;18.75;;;;;;;;;;5011571;28;20483;-50
2023/12/23 14:14:01;;;;;;;20.88;18.98;;;;;;;;;;5011632;28;20042;-54
2023/12/23 14:16:28;;;;;;;20.90;19.00;;;;;;;;;;5011393;28;20484;-48
2023/12/23 14:18:54;;;;;;;21.52;19.63;;;;;;;;;;5011813;28;20029;-53
2023/12/23 14:21:21;;;;;;;22.42;20.52;;;;;;;;;;5011310;28;20389;-50